Accueil
METAR-TAF:

METAR-TAF

Aéroports :

Ouagadougou, Burkina Faso

Aéroport international de Ouagadougou

latitude: 12-21N, longitude: 001-31W, altitude: 316 m

Observation

Le bulletin a été fait il y a 2 heures et 3 minutes, à 02:00 UTC
Vent 5 kt de sud/sud-ouest
Température 24°C
Humidité 57%
Pression 1011 hPa
Visibilité 10 km ou plus
pas de nuages en-dessous de 1500 mètres et pas de cumulonimbus.

METAR: DFFD 240200Z 20005KT CAVOK 24/15 Q1011 NOSIG

Heure: 04:03 (04:03 UTC)

Prévision

Le bulletin a été fait il y a 5 heures et 3 minutes, à 23:00 UTC
Prévision valable du 24 à 00 UTC au 25 à 06 UTC
Vent 8 kt de direction variable
Visibilité: 8000 m
Temporairement
du 24 à 06 UTC au 24 à 10 UTC
Visibilité: 3500 m
brume sèche
Temporairement
du 24 à 17 UTC au 24 à 20 UTC
Visibilité: 4000 m
brume sèche

TAF: DFFD 232300Z 2400/2506 VRB08KT 8000 NSC TEMPO 2406/2410 3500 HZ TEMPO 2417/2420 4000 HZ

Observations et prévisions météorologiques de plus de 4000 aéroports (messages METAR et TAF).

Les stations disponibles sont représentées par des disques jaunes et rouges sur la carte.

Passer la souris dessus pour voir le nom de la station.

Cliquer dessus pour voir les observations et prévisions météorologiques.

Pour changer de carte: cliquez sur les boutons verts avec une croix noire pour zoomer, sur le bouton vert avec un tiret pour effectuer un zoom arrière, ou sur les flèches vertes pour les cartes adjacentes.


METAR-TAF: